LOWSENBR

Guest
Details From LOWS - Salzburg Maxglan
To ENBR - Bergen Lufthavn Flesland
Flight Number -
Tags Generated
Created
Modified
Stats Distance 798 nm / 1,478 km
Max Altitude 0 ft / 0 m
Waypoints 5
Social Downloads 2
Likes 0
Share VATSIM

Download

Looking for another format? Having issues loading an existing format? Contact us
Advertisement - Login to hide

Notes

Generated

Route

LOWS POVEL RAM R2222 ENBR

ID Type Via Altitude Latitude Longitude Leg Dist Tot Dist Heading (true) Name
O LOWS APT - 0 ft / 0 m 47.80472˚ 12.99717˚ - 0 nm - -
POVEL FIX - 0 ft / 0 m 52.12833˚ 10.82778˚ 272 nm 272 nm 343° / 341° -
RAM VOR - 0 ft / 0 m 56.47837˚ 8.18736˚ 277 nm 549 nm 342° / 339° RAMME VOR-DME
R2222 FIX - 0 ft / 0 m 60.30423˚ 5.21449˚ 248 nm 797 nm 339° / 337° -
O ENBR APT - 0 ft / 0 m 60.30662˚ 5.21370˚ 0 nm 798 nm 351° / 351° -

Altitude Profile

Advertisement - Login to hide

Weather


0- 5 10 15 20 25 30 35+ Temperature / ° C

Clouds and Precipitation
Forecast for 2018-05-25 12:00 UTC. Updated 35 minutes ago

Ground ~20,000 ft ~40,000 ft Winds

LOWS

Details ICAO LOWS (SZG)
Name Salzburg Maxglan
Region Austria
Timezone Europe/Vienna (UTC+2.0)
Stats Elevation 1,411 ft / 430 m (AMSL)
Location 47.793333° 13.004333°
Runways 1
Magnetic Variation 3.480° E

METAR

LOWS 251120Z 30005KT 9999 SCT044 FEW050CB 23/13 Q1018 NOSIG

Decode

TAF

TAF LOWS 251115Z 2512/2612 35006KT 9999 FEW040 TX25/2612Z TN12/2604Z PROB40 TEMPO 2512/2517 28015G25KT 7000 TSRA SCT040CB BKN060 BECMG 2517/2519 15006KT CAVOK BECMG 2607/2609 36005KT 9999 FEW050 SCT300

Decode

Departure Runways

ID Width Length Bearing (true) Bearing (mag) Surface Threshold Offset Overrun Length
16 148 ft / 45 m 9,024 ft / 2,751 m 157.08° 153.60° Concrete 656 ft / 200 m 0 ft / 0 m
34 148 ft / 45 m 9,024 ft / 2,751 m 337.09° 333.61° Concrete 787 ft / 240 m 0 ft / 0 m

ENBR

Details ICAO ENBR (BGO)
Name Bergen Lufthavn Flesland
Region Norway
Timezone Europe/Oslo (UTC+2.0)
Stats Elevation 165 ft / 50 m (AMSL)
Location 60.293388° 5.218140°
Runways 1
Magnetic Variation 0.920° E

METAR

ENBR 251120Z 32007KT 280V350 CAVOK 22/05 Q1029 NOSIG RMK WIND 1200FT 34005KT

Decode

TAF

TAF ENBR 251100Z 2512/2612 33010KT CAVOK BECMG 2518/2520 VRB03KT BECMG 2608/2610 33010KT

Decode

Destination Runways

ID Width Length Bearing (true) Bearing (mag) Surface Threshold Offset Overrun Length
17 148 ft / 45 m 9,793 ft / 2,985 m 170.56° 169.64° Asphalt 886 ft / 270 m 0 ft / 0 m
35 148 ft / 45 m 9,793 ft / 2,985 m 350.57° 349.65° Asphalt 886 ft / 270 m 0 ft / 0 m

Approach Navaids

Runway Type Ident Frequency Range Bearing (true) Bearing (mag) Slope Elevation
17 Localiser BR 109.90 MHz 18 nm / 33 km 170.56° 169.64° - 165 ft / 50 m (AMSL)
17 Glidescope BR 109.90 MHz 10 nm / 19 km 170.56° 169.64° 3.10° 165 ft / 50 m (AMSL)
35 Localiser BG 110.50 MHz 18 nm / 33 km 350.55° 349.62° - 165 ft / 50 m (AMSL)
35 Glidescope BG 110.50 MHz 10 nm / 19 km 350.56° 349.64° 3.00° 165 ft / 50 m (AMSL)

Popular Alternatives